sensor_id;sensor_type;location;lat;lon;timestamp;pressure;altitude;pressure_sealevel;temperature;humidity
51439;BME280;38816;51.142;-0.974;2023-04-27T00:01:13;100306.56;;;5.08;100.00
51439;BME280;38816;51.142;-0.974;2023-04-27T00:03:40;100308.25;;;5.08;100.00
51439;BME280;38816;51.142;-0.974;2023-04-27T00:06:06;100302.91;;;5.02;100.00
51439;BME280;38816;51.142;-0.974;2023-04-27T00:08:32;100303.66;;;4.99;100.00
51439;BME280;38816;51.142;-0.974;2023-04-27T00:10:58;100293.91;;;4.89;100.00
51439;BME280;38816;51.142;-0.974;2023-04-27T00:13:24;100306.66;;;4.89;100.00
51439;BME280;38816;51.142;-0.974;2023-04-27T00:15:50;100298.69;;;4.81;100.00
51439;BME280;38816;51.142;-0.974;2023-04-27T00:18:15;100287.47;;;4.76;100.00
51439;BME280;38816;51.142;-0.974;2023-04-27T00:20:41;100297.03;;;4.82;100.00
51439;BME280;38816;51.142;-0.974;2023-04-27T00:23:07;100292.81;;;4.82;100.00
51439;BME280;38816;51.142;-0.974;2023-04-27T00:25:32;100282.34;;;4.76;100.00
51439;BME280;38816;51.142;-0.974;2023-04-27T00:27:57;100290.13;;;4.79;100.00
51439;BME280;38816;51.142;-0.974;2023-04-27T00:30:23;100287.41;;;4.75;100.00
51439;BME280;38816;51.142;-0.974;2023-04-27T00:32:48;100284.50;;;4.66;100.00
51439;BME280;38816;51.142;-0.974;2023-04-27T00:35:14;100272.50;;;4.63;100.00
51439;BME280;38816;51.142;-0.974;2023-04-27T00:37:39;100271.75;;;4.66;100.00
51439;BME280;38816;51.142;-0.974;2023-04-27T00:40:05;100259.91;;;4.66;100.00
51439;BME280;38816;51.142;-0.974;2023-04-27T00:42:33;100269.53;;;4.73;100.00
51439;BME280;38816;51.142;-0.974;2023-04-27T00:44:58;100260.94;;;4.71;100.00
51439;BME280;38816;51.142;-0.974;2023-04-27T00:47:24;100249.72;;;4.66;100.00
51439;BME280;38816;51.142;-0.974;2023-04-27T00:49:49;100246.25;;;4.64;100.00
51439;BME280;38816;51.142;-0.974;2023-04-27T00:52:15;100247.13;;;4.65;100.00
51439;BME280;38816;51.142;-0.974;2023-04-27T00:54:41;100247.97;;;4.65;100.00
51439;BME280;38816;51.142;-0.974;2023-04-27T00:57:07;100238.53;;;4.63;100.00
51439;BME280;38816;51.142;-0.974;2023-04-27T00:59:33;100237.84;;;4.67;100.00
51439;BME280;38816;51.142;-0.974;2023-04-27T01:01:58;100234.28;;;4.63;100.00
51439;BME280;38816;51.142;-0.974;2023-04-27T01:04:24;100227.34;;;4.59;100.00
51439;BME280;38816;51.142;-0.974;2023-04-27T01:06:49;100226.44;;;4.57;100.00
51439;BME280;38816;51.142;-0.974;2023-04-27T01:09:15;100234.97;;;4.59;100.00
51439;BME280;38816;51.142;-0.974;2023-04-27T01:11:44;100226.19;;;4.51;100.00
51439;BME280;38816;51.142;-0.974;2023-04-27T01:14:10;100229.41;;;4.47;100.00
51439;BME280;38816;51.142;-0.974;2023-04-27T01:16:35;100230.78;;;4.39;100.00
51439;BME280;38816;51.142;-0.974;2023-04-27T01:19:01;100219.47;;;4.32;100.00
51439;BME280;38816;51.142;-0.974;2023-04-27T01:21:26;100220.09;;;4.26;100.00
51439;BME280;38816;51.142;-0.974;2023-04-27T01:23:52;100219.03;;;4.21;100.00
51439;BME280;38816;51.142;-0.974;2023-04-27T01:26:18;100233.38;;;4.19;100.00
51439;BME280;38816;51.142;-0.974;2023-04-27T01:28:43;100226.28;;;4.12;100.00
51439;BME280;38816;51.142;-0.974;2023-04-27T01:31:09;100238.47;;;4.19;100.00
51439;BME280;38816;51.142;-0.974;2023-04-27T01:33:36;100236.78;;;4.20;100.00
51439;BME280;38816;51.142;-0.974;2023-04-27T01:36:01;100234.09;;;4.17;100.00
51439;BME280;38816;51.142;-0.974;2023-04-27T01:38:27;100228.88;;;4.14;100.00
51439;BME280;38816;51.142;-0.974;2023-04-27T01:40:52;100228.59;;;4.06;100.00
51439;BME280;38816;51.142;-0.974;2023-04-27T01:43:19;100243.03;;;4.07;100.00
51439;BME280;38816;51.142;-0.974;2023-04-27T01:45:45;100247.06;;;4.02;100.00
51439;BME280;38816;51.142;-0.974;2023-04-27T01:48:10;100248.75;;;4.01;100.00
51439;BME280;38816;51.142;-0.974;2023-04-27T01:50:36;100247.88;;;4.01;100.00
51439;BME280;38816;51.142;-0.974;2023-04-27T01:53:01;100252.97;;;4.01;100.00
51439;BME280;38816;51.142;-0.974;2023-04-27T01:55:27;100251.09;;;3.97;100.00
51439;BME280;38816;51.142;-0.974;2023-04-27T01:57:53;100250.94;;;3.94;100.00
51439;BME280;38816;51.142;-0.974;2023-04-27T02:00:18;100254.41;;;3.96;100.00
51439;BME280;38816;51.142;-0.974;2023-04-27T02:02:43;100244.94;;;3.92;100.00
51439;BME280;38816;51.142;-0.974;2023-04-27T02:05:09;100244.38;;;3.99;100.00
51439;BME280;38816;51.142;-0.974;2023-04-27T02:07:35;100245.63;;;4.09;100.00
51439;BME280;38816;51.142;-0.974;2023-04-27T02:10:00;100247.44;;;4.11;100.00
51439;BME280;38816;51.142;-0.974;2023-04-27T02:12:26;100250.56;;;4.25;100.00
51439;BME280;38816;51.142;-0.974;2023-04-27T02:14:51;100253.81;;;4.42;100.00
51439;BME280;38816;51.142;-0.974;2023-04-27T02:17:16;100245.94;;;4.56;100.00
51439;BME280;38816;51.142;-0.974;2023-04-27T02:19:42;100239.47;;;4.65;100.00
51439;BME280;38816;51.142;-0.974;2023-04-27T02:22:07;100233.28;;;4.80;100.00
51439;BME280;38816;51.142;-0.974;2023-04-27T02:24:34;100234.69;;;4.95;100.00
51439;BME280;38816;51.142;-0.974;2023-04-27T02:26:59;100235.19;;;5.07;100.00
51439;BME280;38816;51.142;-0.974;2023-04-27T02:29:29;100226.97;;;5.14;100.00
51439;BME280;38816;51.142;-0.974;2023-04-27T02:31:54;100221.09;;;5.17;100.00
51439;BME280;38816;51.142;-0.974;2023-04-27T02:34:20;100221.44;;;5.26;100.00
51439;BME280;38816;51.142;-0.974;2023-04-27T02:36:45;100221.03;;;5.38;100.00
51439;BME280;38816;51.142;-0.974;2023-04-27T02:39:10;100215.41;;;5.46;100.00
51439;BME280;38816;51.142;-0.974;2023-04-27T02:41:36;100212.09;;;5.49;100.00
51439;BME280;38816;51.142;-0.974;2023-04-27T02:44:01;100206.28;;;5.53;100.00
51439;BME280;38816;51.142;-0.974;2023-04-27T02:46:27;100224.41;;;5.61;100.00
51439;BME280;38816;51.142;-0.974;2023-04-27T02:48:53;100220.34;;;5.66;100.00
51439;BME280;38816;51.142;-0.974;2023-04-27T02:51:19;100217.09;;;5.70;100.00
51439;BME280;38816;51.142;-0.974;2023-04-27T02:53:45;100219.00;;;5.75;100.00
51439;BME280;38816;51.142;-0.974;2023-04-27T02:56:10;100217.47;;;5.80;100.00
51439;BME280;38816;51.142;-0.974;2023-04-27T02:58:35;100214.81;;;5.77;100.00
51439;BME280;38816;51.142;-0.974;2023-04-27T03:01:01;100219.44;;;5.88;100.00
51439;BME280;38816;51.142;-0.974;2023-04-27T03:03:26;100207.50;;;5.87;100.00
51439;BME280;38816;51.142;-0.974;2023-04-27T03:05:52;100199.88;;;5.88;100.00
51439;BME280;38816;51.142;-0.974;2023-04-27T03:08:17;100192.06;;;5.83;100.00
51439;BME280;38816;51.142;-0.974;2023-04-27T03:10:43;100197.53;;;5.93;100.00
51439;BME280;38816;51.142;-0.974;2023-04-27T03:13:08;100191.47;;;5.91;100.00
51439;BME280;38816;51.142;-0.974;2023-04-27T03:15:34;100191.75;;;5.98;100.00
51439;BME280;38816;51.142;-0.974;2023-04-27T03:17:59;100184.91;;;5.97;100.00
51439;BME280;38816;51.142;-0.974;2023-04-27T03:20:24;100184.31;;;6.04;100.00
51439;BME280;38816;51.142;-0.974;2023-04-27T03:22:50;100181.00;;;6.07;100.00
51439;BME280;38816;51.142;-0.974;2023-04-27T03:25:15;100181.00;;;6.07;100.00
51439;BME280;38816;51.142;-0.974;2023-04-27T03:27:41;100176.72;;;6.06;100.00
51439;BME280;38816;51.142;-0.974;2023-04-27T03:30:08;100166.47;;;6.04;100.00
51439;BME280;38816;51.142;-0.974;2023-04-27T03:32:33;100169.91;;;6.06;100.00
51439;BME280;38816;51.142;-0.974;2023-04-27T03:34:59;100162.91;;;5.99;100.00
51439;BME280;38816;51.142;-0.974;2023-04-27T03:37:24;100168.19;;;6.05;100.00
51439;BME280;38816;51.142;-0.974;2023-04-27T03:39:49;100156.91;;;5.99;100.00
51439;BME280;38816;51.142;-0.974;2023-04-27T03:42:15;100162.97;;;6.02;100.00
51439;BME280;38816;51.142;-0.974;2023-04-27T03:44:40;100153.31;;;5.94;100.00
51439;BME280;38816;51.142;-0.974;2023-04-27T03:47:06;100160.28;;;5.98;100.00
51439;BME280;38816;51.142;-0.974;2023-04-27T03:49:34;100156.91;;;5.99;100.00
51439;BME280;38816;51.142;-0.974;2023-04-27T03:52:00;100155.09;;;5.95;100.00
51439;BME280;38816;51.142;-0.974;2023-04-27T03:54:25;100156.03;;;5.98;100.00
51439;BME280;38816;51.142;-0.974;2023-04-27T03:56:51;100135.13;;;5.84;100.00
51439;BME280;38816;51.142;-0.974;2023-04-27T03:59:16;100151.63;;;5.94;100.00
51439;BME280;38816;51.142;-0.974;2023-04-27T04:01:42;100152.63;;;5.98;100.00
51439;BME280;38816;51.142;-0.974;2023-04-27T04:04:07;100150.94;;;5.98;100.00
51439;BME280;38816;51.142;-0.974;2023-04-27T04:06:33;100133.84;;;5.96;100.00
51439;BME280;38816;51.142;-0.974;2023-04-27T04:08:58;100141.66;;;6.00;100.00
51439;BME280;38816;51.142;-0.974;2023-04-27T04:11:25;100136.56;;;6.00;100.00
51439;BME280;38816;51.142;-0.974;2023-04-27T04:13:51;100134.16;;;6.05;100.00
51439;BME280;38816;51.142;-0.974;2023-04-27T04:16:16;100133.38;;;6.07;100.00
51439;BME280;38816;51.142;-0.974;2023-04-27T04:18:42;100138.53;;;6.09;100.00
51439;BME280;38816;51.142;-0.974;2023-04-27T04:21:08;100129.94;;;6.07;100.00
51439;BME280;38816;51.142;-0.974;2023-04-27T04:23:35;100130.97;;;6.12;100.00
51439;BME280;38816;51.142;-0.974;2023-04-27T04:26:01;100118.84;;;6.05;100.00
51439;BME280;38816;51.142;-0.974;2023-04-27T04:28:27;100133.63;;;6.15;100.00
51439;BME280;38816;51.142;-0.974;2023-04-27T04:30:52;100123.41;;;6.15;100.00
51439;BME280;38816;51.142;-0.974;2023-04-27T04:33:17;100116.47;;;6.11;100.00
51439;BME280;38816;51.142;-0.974;2023-04-27T04:35:43;100122.59;;;6.16;100.00
51439;BME280;38816;51.142;-0.974;2023-04-27T04:38:09;100120.03;;;6.16;100.00
51439;BME280;38816;51.142;-0.974;2023-04-27T04:40:37;100112.31;;;6.13;100.00
51439;BME280;38816;51.142;-0.974;2023-04-27T04:43:03;100110.63;;;6.14;100.00
51439;BME280;38816;51.142;-0.974;2023-04-27T04:45:28;100114.94;;;6.16;100.00
51439;BME280;38816;51.142;-0.974;2023-04-27T04:47:54;100119.44;;;6.23;100.00
51439;BME280;38816;51.142;-0.974;2023-04-27T04:50:20;100106.56;;;6.20;100.00
51439;BME280;38816;51.142;-0.974;2023-04-27T04:52:46;100123.00;;;6.28;100.00
51439;BME280;38816;51.142;-0.974;2023-04-27T04:55:11;100122.13;;;6.28;100.00
51439;BME280;38816;51.142;-0.974;2023-04-27T04:57:36;100117.69;;;6.22;100.00
51439;BME280;38816;51.142;-0.974;2023-04-27T05:00:03;100123.81;;;6.27;100.00
51439;BME280;38816;51.142;-0.974;2023-04-27T05:02:36;100111.78;;;6.23;100.00
51439;BME280;38816;51.142;-0.974;2023-04-27T05:05:02;100128.19;;;6.31;100.00
51439;BME280;38816;51.142;-0.974;2023-04-27T05:07:27;100130.94;;;6.38;100.00
51439;BME280;38816;51.142;-0.974;2023-04-27T05:09:53;100137.06;;;6.43;100.00
51439;BME280;38816;51.142;-0.974;2023-04-27T05:12:18;100125.94;;;6.41;100.00
51439;BME280;38816;51.142;-0.974;2023-04-27T05:14:43;100126.06;;;6.45;100.00
51439;BME280;38816;51.142;-0.974;2023-04-27T05:17:09;100137.34;;;6.52;100.00
51439;BME280;38816;51.142;-0.974;2023-04-27T05:19:34;100122.88;;;6.52;100.00
51439;BME280;38816;51.142;-0.974;2023-04-27T05:21:59;100119.66;;;6.58;100.00
51439;BME280;38816;51.142;-0.974;2023-04-27T05:24:25;100103.41;;;6.56;100.00
51439;BME280;38816;51.142;-0.974;2023-04-27T05:26:51;100089.88;;;6.58;100.00
51439;BME280;38816;51.142;-0.974;2023-04-27T05:29:16;100092.78;;;6.71;100.00
51439;BME280;38816;51.142;-0.974;2023-04-27T05:31:41;100099.81;;;6.78;100.00
51439;BME280;38816;51.142;-0.974;2023-04-27T05:34:07;100105.16;;;6.85;100.00
51439;BME280;38816;51.142;-0.974;2023-04-27T05:36:34;100122.34;;;6.91;100.00
51439;BME280;38816;51.142;-0.974;2023-04-27T05:39:00;100127.59;;;6.96;100.00
51439;BME280;38816;51.142;-0.974;2023-04-27T05:41:25;100118.19;;;6.95;100.00
51439;BME280;38816;51.142;-0.974;2023-04-27T05:43:51;100122.75;;;7.05;100.00
51439;BME280;38816;51.142;-0.974;2023-04-27T05:46:17;100123.72;;;7.10;100.00
51439;BME280;38816;51.142;-0.974;2023-04-27T05:48:43;100129.03;;;7.16;100.00
51439;BME280;38816;51.142;-0.974;2023-04-27T05:51:08;100115.34;;;7.14;100.00
51439;BME280;38816;51.142;-0.974;2023-04-27T05:53:34;100109.38;;;7.15;100.00
51439;BME280;38816;51.142;-0.974;2023-04-27T05:55:59;100105.22;;;7.19;100.00
51439;BME280;38816;51.142;-0.974;2023-04-27T05:58:27;100116.66;;;7.31;100.00
51439;BME280;38816;51.142;-0.974;2023-04-27T06:00:53;100106.53;;;7.34;100.00
51439;BME280;38816;51.142;-0.974;2023-04-27T06:03:19;100109.41;;;7.47;100.00
51439;BME280;38816;51.142;-0.974;2023-04-27T06:05:44;100100.25;;;7.55;100.00
51439;BME280;38816;51.142;-0.974;2023-04-27T06:08:10;100090.84;;;7.54;100.00
51439;BME280;38816;51.142;-0.974;2023-04-27T06:10:37;100109.06;;;7.66;100.00
51439;BME280;38816;51.142;-0.974;2023-04-27T06:13:02;100119.50;;;7.74;100.00
51439;BME280;38816;51.142;-0.974;2023-04-27T06:15:28;100123.94;;;7.81;100.00
51439;BME280;38816;51.142;-0.974;2023-04-27T06:17:53;100137.69;;;7.84;100.00
51439;BME280;38816;51.142;-0.974;2023-04-27T06:20:18;100136.03;;;7.86;100.00
51439;BME280;38816;51.142;-0.974;2023-04-27T06:22:44;100118.06;;;7.83;100.00
51439;BME280;38816;51.142;-0.974;2023-04-27T06:25:11;100115.63;;;7.90;100.00
51439;BME280;38816;51.142;-0.974;2023-04-27T06:27:36;100112.22;;;7.89;100.00
51439;BME280;38816;51.142;-0.974;2023-04-27T06:30:02;100116.69;;;7.98;100.00
51439;BME280;38816;51.142;-0.974;2023-04-27T06:32:27;100109.19;;;8.05;100.00
51439;BME280;38816;51.142;-0.974;2023-04-27T06:34:52;100094.75;;;8.07;100.00
51439;BME280;38816;51.142;-0.974;2023-04-27T06:37:18;100103.59;;;8.20;100.00
51439;BME280;38816;51.142;-0.974;2023-04-27T06:39:43;100108.19;;;8.35;100.00
51439;BME280;38816;51.142;-0.974;2023-04-27T06:42:09;100104.06;;;8.39;100.00
51439;BME280;38816;51.142;-0.974;2023-04-27T06:44:34;100114.41;;;8.43;100.00
51439;BME280;38816;51.142;-0.974;2023-04-27T06:46:59;100121.34;;;8.49;100.00
51439;BME280;38816;51.142;-0.974;2023-04-27T06:49:25;100104.28;;;8.49;100.00
51439;BME280;38816;51.142;-0.974;2023-04-27T06:51:50;100103.53;;;8.55;100.00
51439;BME280;38816;51.142;-0.974;2023-04-27T06:54:16;100103.72;;;8.62;100.00
51439;BME280;38816;51.142;-0.974;2023-04-27T06:56:41;100108.97;;;8.69;100.00
51439;BME280;38816;51.142;-0.974;2023-04-27T06:59:07;100113.31;;;8.71;100.00
51439;BME280;38816;51.142;-0.974;2023-04-27T07:01:33;100110.09;;;8.80;100.00
51439;BME280;38816;51.142;-0.974;2023-04-27T07:03:58;100109.50;;;8.93;100.00
51439;BME280;38816;51.142;-0.974;2023-04-27T07:06:23;100112.28;;;9.04;100.00
51439;BME280;38816;51.142;-0.974;2023-04-27T07:08:50;100106.53;;;9.14;100.00
51439;BME280;38816;51.142;-0.974;2023-04-27T07:11:15;100096.50;;;9.26;100.00
51439;BME280;38816;51.142;-0.974;2023-04-27T07:13:41;100096.75;;;9.40;100.00
51439;BME280;38816;51.142;-0.974;2023-04-27T07:16:06;100097.84;;;9.53;100.00
51439;BME280;38816;51.142;-0.974;2023-04-27T07:18:32;100101.41;;;9.61;100.00
51439;BME280;38816;51.142;-0.974;2023-04-27T07:20:57;100097.25;;;9.68;100.00
51439;BME280;38816;51.142;-0.974;2023-04-27T07:23:23;100096.38;;;9.67;100.00
51439;BME280;38816;51.142;-0.974;2023-04-27T07:25:49;100117.06;;;9.76;100.00
51439;BME280;38816;51.142;-0.974;2023-04-27T07:28:14;100122.22;;;9.76;100.00
51439;BME280;38816;51.142;-0.974;2023-04-27T07:30:40;100119.44;;;9.64;100.00
51439;BME280;38816;51.142;-0.974;2023-04-27T07:33:07;100121.09;;;9.62;100.00
51439;BME280;38816;51.142;-0.974;2023-04-27T07:35:33;100136.50;;;9.62;100.00
51439;BME280;38816;51.142;-0.974;2023-04-27T07:37:59;100118.38;;;9.53;100.00
51439;BME280;38816;51.142;-0.974;2023-04-27T07:40:28;100099.38;;;9.43;100.00
51439;BME280;38816;51.142;-0.974;2023-04-27T07:42:54;100111.53;;;9.53;100.00
51439;BME280;38816;51.142;-0.974;2023-04-27T07:45:20;100128.88;;;9.65;100.00
51439;BME280;38816;51.142;-0.974;2023-04-27T07:47:46;100124.50;;;9.59;100.00
51439;BME280;38816;51.142;-0.974;2023-04-27T07:50:12;100107.25;;;9.52;100.00
51439;BME280;38816;51.142;-0.974;2023-04-27T07:52:38;100130.59;;;9.64;100.00
51439;BME280;38816;51.142;-0.974;2023-04-27T07:55:04;100107.34;;;9.58;100.00
51439;BME280;38816;51.142;-0.974;2023-04-27T07:57:30;100123.88;;;9.73;100.00
51439;BME280;38816;51.142;-0.974;2023-04-27T07:59:56;100124.84;;;9.78;100.00
51439;BME280;38816;51.142;-0.974;2023-04-27T08:02:21;100110.31;;;9.80;100.00
51439;BME280;38816;51.142;-0.974;2023-04-27T08:04:47;100103.47;;;9.80;100.00
51439;BME280;38816;51.142;-0.974;2023-04-27T08:07:14;100105.25;;;9.84;100.00
51439;BME280;38816;51.142;-0.974;2023-04-27T08:09:40;100081.25;;;9.82;100.00
51439;BME280;38816;51.142;-0.974;2023-04-27T08:12:05;100076.22;;;9.88;100.00
51439;BME280;38816;51.142;-0.974;2023-04-27T08:14:33;100076.38;;;9.98;100.00
51439;BME280;38816;51.142;-0.974;2023-04-27T08:16:59;100056.84;;;10.07;100.00
51439;BME280;38816;51.142;-0.974;2023-04-27T08:19:24;100058.78;;;10.22;100.00
51439;BME280;38816;51.142;-0.974;2023-04-27T08:21:50;100059.81;;;10.33;100.00
51439;BME280;38816;51.142;-0.974;2023-04-27T08:24:15;100063.38;;;10.42;100.00
51439;BME280;38816;51.142;-0.974;2023-04-27T08:26:41;100060.88;;;10.48;100.00
51439;BME280;38816;51.142;-0.974;2023-04-27T08:29:06;100054.81;;;10.43;100.00
51439;BME280;38816;51.142;-0.974;2023-04-27T08:31:31;100058.09;;;10.32;100.00
51439;BME280;38816;51.142;-0.974;2023-04-27T08:33:57;100063.19;;;10.31;100.00
51439;BME280;38816;51.142;-0.974;2023-04-27T08:36:23;100069.19;;;10.30;100.00
51439;BME280;38816;51.142;-0.974;2023-04-27T08:38:50;100046.06;;;10.28;100.00
51439;BME280;38816;51.142;-0.974;2023-04-27T08:41:20;100043.69;;;10.42;100.00
51439;BME280;38816;51.142;-0.974;2023-04-27T08:43:46;100055.91;;;10.60;100.00
51439;BME280;38816;51.142;-0.974;2023-04-27T08:46:17;100062.94;;;10.72;100.00
51439;BME280;38816;51.142;-0.974;2023-04-27T08:48:42;100058.59;;;10.69;100.00
51439;BME280;38816;51.142;-0.974;2023-04-27T08:51:09;100051.81;;;10.74;100.00
51439;BME280;38816;51.142;-0.974;2023-04-27T08:53:35;100049.31;;;10.80;100.00
51439;BME280;38816;51.142;-0.974;2023-04-27T08:56:00;100057.19;;;10.93;100.00
51439;BME280;38816;51.142;-0.974;2023-04-27T08:58:36;100061.63;;;11.07;100.00
51439;BME280;38816;51.142;-0.974;2023-04-27T09:01:04;100065.19;;;11.19;100.00
51439;BME280;38816;51.142;-0.974;2023-04-27T09:03:31;100057.59;;;11.29;100.00
51439;BME280;38816;51.142;-0.974;2023-04-27T09:05:56;100050.84;;;11.44;100.00
51439;BME280;38816;51.142;-0.974;2023-04-27T09:08:22;100057.75;;;11.48;100.00
51439;BME280;38816;51.142;-0.974;2023-04-27T09:10:51;100059.50;;;11.49;100.00
51439;BME280;38816;51.142;-0.974;2023-04-27T09:13:17;100066.25;;;11.37;100.00
51439;BME280;38816;51.142;-0.974;2023-04-27T09:15:47;100056.69;;;11.24;100.00
51439;BME280;38816;51.142;-0.974;2023-04-27T09:18:21;100053.19;;;11.18;100.00
51439;BME280;38816;51.142;-0.974;2023-04-27T09:20:48;100067.72;;;11.14;100.00
51439;BME280;38816;51.142;-0.974;2023-04-27T09:23:30;100060.75;;;11.07;100.00
51439;BME280;38816;51.142;-0.974;2023-04-27T09:26:00;100056.44;;;11.03;100.00
51439;BME280;38816;51.142;-0.974;2023-04-27T09:28:27;100048.81;;;11.10;100.00
51439;BME280;38816;51.142;-0.974;2023-04-27T09:30:54;100043.75;;;11.21;100.00
51439;BME280;38816;51.142;-0.974;2023-04-27T09:33:24;100046.66;;;11.50;100.00
51439;BME280;38816;51.142;-0.974;2023-04-27T09:35:50;100044.25;;;11.70;100.00
51439;BME280;38816;51.142;-0.974;2023-04-27T09:38:17;100039.28;;;11.85;100.00
51439;BME280;38816;51.142;-0.974;2023-04-27T09:40:43;100040.22;;;11.98;100.00
51439;BME280;38816;51.142;-0.974;2023-04-27T09:43:10;100036.84;;;12.07;100.00
51439;BME280;38816;51.142;-0.974;2023-04-27T09:45:36;100036.06;;;12.17;99.42
51439;BME280;38816;51.142;-0.974;2023-04-27T09:48:03;100023.22;;;12.22;98.55
51439;BME280;38816;51.142;-0.974;2023-04-27T09:50:32;100035.28;;;12.33;98.86
51439;BME280;38816;51.142;-0.974;2023-04-27T09:52:59;100025.84;;;12.29;97.73
51439;BME280;38816;51.142;-0.974;2023-04-27T09:55:28;100030.16;;;12.35;98.82
51439;BME280;38816;51.142;-0.974;2023-04-27T10:04:15;100016.59;;;12.77;98.18
51439;BME280;38816;51.142;-0.974;2023-04-27T10:07:04;100024.44;;;13.08;96.73
51439;BME280;38816;51.142;-0.974;2023-04-27T10:09:36;100011.56;;;13.20;94.85
51439;BME280;38816;51.142;-0.974;2023-04-27T10:12:18;100014.09;;;13.05;92.67
51439;BME280;38816;51.142;-0.974;2023-04-27T10:14:54;100002.84;;;12.83;94.50
51439;BME280;38816;51.142;-0.974;2023-04-27T10:17:46;100002.03;;;12.88;95.12
51439;BME280;38816;51.142;-0.974;2023-04-27T10:20:13;99995.22;;;13.06;95.60
51439;BME280;38816;51.142;-0.974;2023-04-27T10:22:40;99990.03;;;13.07;94.53
51439;BME280;38816;51.142;-0.974;2023-04-27T10:25:35;99988.31;;;13.08;93.47
51439;BME280;38816;51.142;-0.974;2023-04-27T10:28:02;99977.16;;;13.20;92.70
51439;BME280;38816;51.142;-0.974;2023-04-27T10:30:33;99971.16;;;13.28;92.95
51439;BME280;38816;51.142;-0.974;2023-04-27T10:33:06;99960.00;;;13.35;91.75
51439;BME280;38816;51.142;-0.974;2023-04-27T10:38:07;99978.06;;;13.29;92.38
51439;BME280;38816;51.142;-0.974;2023-04-27T10:40:43;99962.50;;;13.14;90.81
51439;BME280;38816;51.142;-0.974;2023-04-27T10:43:14;99966.88;;;13.32;91.39
51439;BME280;38816;51.142;-0.974;2023-04-27T10:45:41;99965.16;;;13.55;91.80
51439;BME280;38816;51.142;-0.974;2023-04-27T10:48:07;99962.56;;;13.75;89.81
51439;BME280;38816;51.142;-0.974;2023-04-27T10:50:33;99963.44;;;13.83;88.22
51439;BME280;38816;51.142;-0.974;2023-04-27T10:53:01;99959.97;;;13.89;87.35
51439;BME280;38816;51.142;-0.974;2023-04-27T10:55:28;99961.69;;;13.90;88.77
51439;BME280;38816;51.142;-0.974;2023-04-27T10:57:55;99956.53;;;13.96;88.04
51439;BME280;38816;51.142;-0.974;2023-04-27T11:00:25;99961.69;;;14.01;87.84
51439;BME280;38816;51.142;-0.974;2023-04-27T11:02:52;99957.34;;;14.00;87.24
51439;BME280;38816;51.142;-0.974;2023-04-27T11:05:21;99944.44;;;13.90;87.16
51439;BME280;38816;51.142;-0.974;2023-04-27T11:07:49;99959.13;;;13.72;87.04
51439;BME280;38816;51.142;-0.974;2023-04-27T11:10:16;99964.28;;;13.46;88.07
51439;BME280;38816;51.142;-0.974;2023-04-27T11:12:42;99979.75;;;13.23;89.36
51439;BME280;38816;51.142;-0.974;2023-04-27T11:15:07;99980.53;;;13.00;91.76
51439;BME280;38816;51.142;-0.974;2023-04-27T11:17:33;99971.03;;;12.82;93.12
51439;BME280;38816;51.142;-0.974;2023-04-27T11:19:59;99971.06;;;12.85;93.38
51439;BME280;38816;51.142;-0.974;2023-04-27T11:22:24;99971.06;;;12.79;93.33
51439;BME280;38816;51.142;-0.974;2023-04-27T11:24:51;99961.56;;;12.78;93.87
51439;BME280;38816;51.142;-0.974;2023-04-27T11:27:17;99965.91;;;12.91;94.40
51439;BME280;38816;51.142;-0.974;2023-04-27T11:29:43;99946.97;;;12.86;93.69
51439;BME280;38816;51.142;-0.974;2023-04-27T11:32:22;99948.72;;;12.90;93.02
51439;BME280;38816;51.142;-0.974;2023-04-27T11:34:53;99943.59;;;13.07;93.38
51439;BME280;38816;51.142;-0.974;2023-04-27T11:37:24;99935.00;;;13.16;91.68
51439;BME280;38816;51.142;-0.974;2023-04-27T11:39:50;99935.88;;;13.36;90.32
51439;BME280;38816;51.142;-0.974;2023-04-27T11:42:22;99924.69;;;13.62;90.45
51439;BME280;38816;51.142;-0.974;2023-04-27T11:44:59;99909.13;;;14.02;88.94
51439;BME280;38816;51.142;-0.974;2023-04-27T11:47:28;99908.13;;;14.36;86.35
51439;BME280;38816;51.142;-0.974;2023-04-27T11:49:55;99896.00;;;14.55;85.74
51439;BME280;38816;51.142;-0.974;2023-04-27T11:52:26;99900.19;;;14.75;85.23
51439;BME280;38816;51.142;-0.974;2023-04-27T11:54:53;99889.69;;;14.94;84.62
51439;BME280;38816;51.142;-0.974;2023-04-27T11:57:27;99882.72;;;15.09;82.09
51439;BME280;38816;51.142;-0.974;2023-04-27T11:59:54;99864.66;;;15.01;82.17
51439;BME280;38816;51.142;-0.974;2023-04-27T12:02:20;99862.88;;;15.06;82.30
51439;BME280;38816;51.142;-0.974;2023-04-27T12:04:47;99862.03;;;15.06;79.00
51439;BME280;38816;51.142;-0.974;2023-04-27T12:07:12;99849.22;;;14.84;77.83
51439;BME280;38816;51.142;-0.974;2023-04-27T12:09:38;99841.59;;;14.69;78.09
51439;BME280;38816;51.142;-0.974;2023-04-27T12:12:05;99850.22;;;14.69;78.49
51439;BME280;38816;51.142;-0.974;2023-04-27T12:14:30;99848.59;;;14.55;78.62
51439;BME280;38816;51.142;-0.974;2023-04-27T12:16:56;99846.09;;;14.33;78.45
51439;BME280;38816;51.142;-0.974;2023-04-27T12:19:21;99847.91;;;14.13;79.44
51439;BME280;38816;51.142;-0.974;2023-04-27T12:21:49;99859.13;;;14.06;80.55
51439;BME280;38816;51.142;-0.974;2023-04-27T12:24:15;99847.94;;;13.99;81.32
51439;BME280;38816;51.142;-0.974;2023-04-27T12:26:40;99846.25;;;13.90;81.36
51439;BME280;38816;51.142;-0.974;2023-04-27T12:29:06;99854.06;;;13.78;82.83
51439;BME280;38816;51.142;-0.974;2023-04-27T12:31:31;99843.78;;;13.60;84.89
51439;BME280;38816;51.142;-0.974;2023-04-27T12:33:57;99856.69;;;13.55;85.76
51439;BME280;38816;51.142;-0.974;2023-04-27T12:36:23;99845.53;;;13.42;85.98
51439;BME280;38816;51.142;-0.974;2023-04-27T12:38:48;99852.41;;;13.28;85.93
51439;BME280;38816;51.142;-0.974;2023-04-27T12:41:14;99847.25;;;13.16;87.53
51439;BME280;38816;51.142;-0.974;2023-04-27T12:43:39;99842.06;;;13.10;88.66
51439;BME280;38816;51.142;-0.974;2023-04-27T12:46:05;99845.53;;;13.12;88.83